Meamina — 2AMK7 — position and weather

sailwx.info

Track history (hours):
 
Tides and Currents Weather Stations Pressure Air Temp Water Temp Dewpoint Dewpoint Depression Visibility Wind Speed Wind Dir Waves Ship Positions

Meamina

Last reported at 2017-May-22 09:22 UTC. Time now 2017-May-22 17:23 UTC.
Position N 43°41' E 007°17'.

Length 60 m; draft 3.2 m.

Type: Ship. MMSI: 235061022.

Date/timePositionNaut miles runAvg speedWind from/ knotsBaromVisibWave heightAir tempDewpointWater temp
2017-May-22 09:22N 43°41' E 007°17'3 1.5
2017-May-22 07:33N 43°39' E 007°15'0 8.0
2017-May-22 07:29N 43°39' E 007°15'5 7.8
2017-May-22 06:54N 43°36' E 007°10'2 0.1
2017-May-21 18:58N 43°35' E 007°08'0 0.0
2017-May-21 09:47N 43°35' E 007°08'0 0.0
2017-May-21 09:09N 43°35' E 007°08'0 0.0
2017-May-20 19:26N 43°35' E 007°08'0 0.0
2017-May-20 18:59N 43°35' E 007°08'0 0.0
2017-May-20 18:29N 43°35' E 007°08'0 0.0
2017-May-18 15:24N 43°35' E 007°08'0 0.1
2017-May-18 14:59N 43°35' E 007°08'8 8.2
2017-May-18 14:00N 43°27' E 007°05'7611.3
2017-May-18 07:16N 42°38' E 005°45'412.2
2017-May-18 06:55N 42°36' E 005°40'512.0
2017-May-18 06:30N 42°34' E 005°34'812.4
2017-May-18 05:53N 42°30' E 005°25'712.3
2017-May-18 05:21N 42°27' E 005°17'512.2
2017-May-18 04:59N 42°25' E 005°11'612.2
2017-May-18 04:30N 42°22' E 005°04'612.2
2017-May-18 04:00N 42°19' E 004°57'612.3
2017-May-18 03:30N 42°17' E 004°50'612.2
2017-May-18 03:00N 42°14' E 004°42'612.0
2017-May-18 02:30N 42°11' E 004°35'612.1
2017-May-18 02:00N 42°08' E 004°28'612.2
2017-May-18 01:30N 42°05' E 004°21'612.1
2017-May-18 01:00N 42°03' E 004°13'612.1
2017-May-18 00:30N 41°60' E 004°06'612.1
2017-May-18 00:00N 41°57' E 003°59'612.3
2017-May-17 23:30N 41°54' E 003°52'612.1
2017-May-17 22:59N 41°51' E 003°44'612.0
2017-May-17 22:30N 41°49' E 003°37'4911.9
2017-May-17 18:21N 41°26' E 002°39'512.1
2017-May-17 17:55N 41°23' E 002°32'1012.4
2017-May-17 17:06N 41°19' E 002°21'1411.4
2017-May-17 15:55N 41°13' E 002°04'611.4
2017-May-17 15:26N 41°11' E 001°57'612.5
2017-May-17 14:58N 41°10' E 001°50'5 0.4
2017-May-17 01:35N 41°13' E 001°44'0 0.0
2017-May-17 01:23N 41°13' E 001°44'0 0.0
2017-May-17 00:35N 41°13' E 001°44'0 0.0
2017-May-17 00:29N 41°13' E 001°44'0 0.0
2017-May-16 23:59N 41°13' E 001°44'0 0.0
2017-May-16 23:23N 41°13' E 001°44'0 0.0
2017-May-16 22:59N 41°13' E 001°44'0 0.0
2017-May-16 22:23N 41°13' E 001°44'0 0.0
2017-May-16 21:59N 41°13' E 001°44'0 0.0
2017-May-16 21:17N 41°13' E 001°44'0 0.0
2017-May-16 20:53N 41°13' E 001°44'0 0.0
2017-May-16 20:29N 41°13' E 001°44'0 0.0
2017-May-16 18:35N 41°13' E 001°44'0 0.0
2017-May-16 15:09N 41°13' E 001°44'0 0.0
2017-May-16 12:42N 41°13' E 001°44'0 0.0
2017-May-16 12:30N 41°13' E 001°44'0 0.0
2017-May-16 12:00N 41°13' E 001°44'0 0.0
2017-May-16 11:12N 41°13' E 001°44'0 0.0
2017-May-16 07:06N 41°13' E 001°44'0 0.0
2017-May-16 06:54N 41°13' E 001°44'0 0.0
2017-May-16 06:12N 41°13' E 001°44'0 0.0
2017-May-16 04:12N 41°13' E 001°44'0 0.0
2017-May-16 03:51N 41°13' E 001°44'0 0.0
2017-May-15 22:27N 41°13' E 001°44'0 0.0
2017-May-15 21:45N 41°13' E 001°44'0 0.0
2017-May-15 21:09N 41°13' E 001°44'0 0.0
2017-May-15 20:57N 41°13' E 001°44'0 0.0
2017-May-15 20:27N 41°13' E 001°44'0 0.0
2017-May-15 19:09N 41°13' E 001°44'0 0.0
2017-May-15 11:22N 41°13' E 001°44'0 0.0
2017-May-15 01:09N 41°13' E 001°44'0 0.0
2017-May-15 00:45N 41°13' E 001°44'0 0.0
2017-May-15 00:27N 41°13' E 001°44'0 0.0
2017-May-14 23:45N 41°13' E 001°44'0 0.0
2017-May-14 23:15N 41°13' E 001°44'0 0.0
2017-May-14 22:57N 41°13' E 001°44'0 0.0
2017-May-14 21:33N 41°13' E 001°44'0 0.0
2017-May-14 21:27N 41°13' E 001°44'0 0.0
2017-May-14 19:27N 41°13' E 001°44'0 0.0
2017-May-14 18:57N 41°13' E 001°44'0 0.0
2017-May-14 18:27N 41°13' E 001°44'0 0.0
2017-May-14 18:00N 41°13' E 001°44'0 0.0
2017-May-14 17:25N 41°13' E 001°44'0 0.0
2017-May-14 16:55N 41°13' E 001°44'0 0.0
2017-May-14 16:07N 41°13' E 001°44'0 0.0
2017-May-14 15:55N 41°13' E 001°44'0 0.0
2017-May-14 15:25N 41°13' E 001°44'0 0.0
2017-May-13 00:45N 41°13' E 001°44'0 0.0
2017-May-13 00:27N 41°13' E 001°44'  
Track history (hours):
 
Tides and Currents Weather Stations Pressure Air Temp Water Temp Dewpoint Dewpoint Depression Visibility Wind Speed Wind Dir Waves Ship Positions

Meamina

Last reported at 2017-May-22 09:22 UTC. Time now 2017-May-22 17:23 UTC.
Position N 43°41' E 007°17'.

Length 60 m; draft 3.2 m.

Type: Ship. MMSI: 235061022.

Date/timePositionNaut miles runAvg speedWind from/ knotsBaromVisibWave heightAir tempDewpointWater temp
2017-May-22 09:22N 43°41' E 007°17'3 1.5
2017-May-22 07:33N 43°39' E 007°15'0 8.0
2017-May-22 07:29N 43°39' E 007°15'5 7.8
2017-May-22 06:54N 43°36' E 007°10'2 0.1
2017-May-21 18:58N 43°35' E 007°08'0 0.0
2017-May-21 09:47N 43°35' E 007°08'0 0.0
2017-May-21 09:09N 43°35' E 007°08'0 0.0
2017-May-20 19:26N 43°35' E 007°08'0 0.0
2017-May-20 18:59N 43°35' E 007°08'0 0.0
2017-May-20 18:29N 43°35' E 007°08'0 0.0
2017-May-18 15:24N 43°35' E 007°08'0 0.1
2017-May-18 14:59N 43°35' E 007°08'8 8.2
2017-May-18 14:00N 43°27' E 007°05'7611.3
2017-May-18 07:16N 42°38' E 005°45'412.2
2017-May-18 06:55N 42°36' E 005°40'512.0
2017-May-18 06:30N 42°34' E 005°34'812.4
2017-May-18 05:53N 42°30' E 005°25'712.3
2017-May-18 05:21N 42°27' E 005°17'512.2
2017-May-18 04:59N 42°25' E 005°11'612.2
2017-May-18 04:30N 42°22' E 005°04'612.2
2017-May-18 04:00N 42°19' E 004°57'612.3
2017-May-18 03:30N 42°17' E 004°50'612.2
2017-May-18 03:00N 42°14' E 004°42'612.0
2017-May-18 02:30N 42°11' E 004°35'612.1
2017-May-18 02:00N 42°08' E 004°28'612.2
2017-May-18 01:30N 42°05' E 004°21'612.1
2017-May-18 01:00N 42°03' E 004°13'612.1
2017-May-18 00:30N 41°60' E 004°06'612.1
2017-May-18 00:00N 41°57' E 003°59'612.3
2017-May-17 23:30N 41°54' E 003°52'612.1
2017-May-17 22:59N 41°51' E 003°44'612.0
2017-May-17 22:30N 41°49' E 003°37'4911.9
2017-May-17 18:21N 41°26' E 002°39'512.1
2017-May-17 17:55N 41°23' E 002°32'1012.4
2017-May-17 17:06N 41°19' E 002°21'1411.4
2017-May-17 15:55N 41°13' E 002°04'611.4
2017-May-17 15:26N 41°11' E 001°57'612.5
2017-May-17 14:58N 41°10' E 001°50'5 0.4
2017-May-17 01:35N 41°13' E 001°44'0 0.0
2017-May-17 01:23N 41°13' E 001°44'0 0.0
2017-May-17 00:35N 41°13' E 001°44'0 0.0
2017-May-17 00:29N 41°13' E 001°44'0 0.0
2017-May-16 23:59N 41°13' E 001°44'0 0.0
2017-May-16 23:23N 41°13' E 001°44'0 0.0
2017-May-16 22:59N 41°13' E 001°44'0 0.0
2017-May-16 22:23N 41°13' E 001°44'0 0.0
2017-May-16 21:59N 41°13' E 001°44'0 0.0
2017-May-16 21:17N 41°13' E 001°44'0 0.0
2017-May-16 20:53N 41°13' E 001°44'0 0.0
2017-May-16 20:29N 41°13' E 001°44'0 0.0
2017-May-16 18:35N 41°13' E 001°44'0 0.0
2017-May-16 15:09N 41°13' E 001°44'0 0.0
2017-May-16 12:42N 41°13' E 001°44'0 0.0
2017-May-16 12:30N 41°13' E 001°44'0 0.0
2017-May-16 12:00N 41°13' E 001°44'0 0.0
2017-May-16 11:12N 41°13' E 001°44'0 0.0
2017-May-16 07:06N 41°13' E 001°44'0 0.0
2017-May-16 06:54N 41°13' E 001°44'0 0.0
2017-May-16 06:12N 41°13' E 001°44'0 0.0
2017-May-16 04:12N 41°13' E 001°44'0 0.0
2017-May-16 03:51N 41°13' E 001°44'0 0.0
2017-May-15 22:27N 41°13' E 001°44'0 0.0
2017-May-15 21:45N 41°13' E 001°44'0 0.0
2017-May-15 21:09N 41°13' E 001°44'0 0.0
2017-May-15 20:57N 41°13' E 001°44'0 0.0
2017-May-15 20:27N 41°13' E 001°44'0 0.0
2017-May-15 19:09N 41°13' E 001°44'0 0.0
2017-May-15 11:22N 41°13' E 001°44'0 0.0
2017-May-15 01:09N 41°13' E 001°44'0 0.0
2017-May-15 00:45N 41°13' E 001°44'0 0.0
2017-May-15 00:27N 41°13' E 001°44'0 0.0
2017-May-14 23:45N 41°13' E 001°44'0 0.0
2017-May-14 23:15N 41°13' E 001°44'0 0.0
2017-May-14 22:57N 41°13' E 001°44'0 0.0
2017-May-14 21:33N 41°13' E 001°44'0 0.0
2017-May-14 21:27N 41°13' E 001°44'0 0.0
2017-May-14 19:27N 41°13' E 001°44'0 0.0
2017-May-14 18:57N 41°13' E 001°44'0 0.0
2017-May-14 18:27N 41°13' E 001°44'0 0.0
2017-May-14 18:00N 41°13' E 001°44'0 0.0
2017-May-14 17:25N 41°13' E 001°44'0 0.0
2017-May-14 16:55N 41°13' E 001°44'0 0.0
2017-May-14 16:07N 41°13' E 001°44'0 0.0
2017-May-14 15:55N 41°13' E 001°44'0 0.0
2017-May-14 15:25N 41°13' E 001°44'0 0.0
2017-May-13 00:45N 41°13' E 001°44'0 0.0
2017-May-13 00:27N 41°13' E 001°44'  

Dump ship's entire track history